Time,TemperatureF,DewpointF,PressureIn,WindDirection,WindDirectionDegrees,WindSpeedMPH,WindSpeedGustMPH,Humidity,HourlyPrecipIn,Conditions,Clouds,dailyrainin,SoftwareType,DateUTC
2013-02-02 00:03:00,27.7,13.6,30.17,NW,310,0.0,2.0,55,0.00,SCT,SCT,0.00,WeatherDisplay:10.37,2013-02-02 06:03:00,
2013-02-02 00:09:00,27.5,13.4,30.17,South,172,3.0,5.0,55,0.00,SCT,SCT,0.00,WeatherDisplay:10.37,2013-02-02 06:09:00,
2013-02-02 00:15:00,27.7,13.6,30.15,South,169,3.0,4.0,55,0.00,SCT,SCT,0.00,WeatherDisplay:10.37,2013-02-02 06:15:00,
2013-02-02 00:21:00,27.5,13.4,30.15,NE,38,3.0,4.0,55,0.00,SCT,SCT,0.00,WeatherDisplay:10.37,2013-02-02 06:21:00,
2013-02-02 00:27:00,27.7,13.6,30.15,North,360,2.0,3.0,55,0.00,SCT,SCT,0.00,WeatherDisplay:10.37,2013-02-02 06:27:00,
2013-02-02 00:33:00,27.7,13.6,30.15,ENE,61,5.0,5.0,55,0.00,SCT,SCT,0.00,WeatherDisplay:10.37,2013-02-02 06:33:00,
2013-02-02 00:39:00,27.5,13.5,30.16,SSE,154,3.0,6.0,55,0.00,SCT,SCT,0.00,WeatherDisplay:10.37,2013-02-02 06:39:00,
2013-02-02 00:45:00,27.7,13.6,30.16,SSW,195,3.0,5.0,55,0.00,SCT,SCT,0.00,WeatherDisplay:10.37,2013-02-02 06:45:00,
2013-02-02 00:51:00,27.9,13.8,30.16,SSW,193,3.0,6.0,55,0.00,SCT,SCT,0.00,WeatherDisplay:10.37,2013-02-02 06:51:00,
2013-02-02 00:57:00,27.9,13.8,30.16,SSE,159,0.0,0.0,55,0.00,SCT,SCT,0.00,WeatherDisplay:10.37,2013-02-02 06:57:00,
2013-02-02 01:03:00,28.2,14.0,30.16,NE,39,0.0,0.0,55,0.00,FEW,FEW,0.00,WeatherDisplay:10.37,2013-02-02 07:03:00,
2013-02-02 01:09:00,28.6,14.5,30.16,North,360,1.0,4.0,55,0.00,FEW,FEW,0.00,WeatherDisplay:10.37,2013-02-02 07:09:00,
2013-02-02 01:15:00,28.6,14.5,30.15,North,360,2.0,4.0,55,0.00,FEW,FEW,0.00,WeatherDisplay:10.37,2013-02-02 07:15:00,
2013-02-02 01:21:00,28.9,14.7,30.15,North,360,2.0,3.0,55,0.00,FEW,FEW,0.00,WeatherDisplay:10.37,2013-02-02 07:21:00,
2013-02-02 01:27:00,28.8,14.6,30.16,North,360,0.0,4.0,55,0.00,FEW,FEW,0.00,WeatherDisplay:10.37,2013-02-02 07:27:00,
2013-02-02 01:33:00,28.8,14.7,30.16,NNW,331,5.0,7.0,55,0.00,FEW,FEW,0.00,WeatherDisplay:10.37,2013-02-02 07:33:00,
2013-02-02 01:39:00,28.8,15.1,30.16,WNW,285,1.0,6.0,56,0.00,FEW,FEW,0.00,WeatherDisplay:10.37,2013-02-02 07:39:00,
2013-02-02 01:45:00,28.2,14.5,30.16,WSW,244,2.0,5.0,56,0.00,FEW,FEW,0.00,WeatherDisplay:10.37,2013-02-02 07:45:00,
2013-02-02 01:51:00,28.7,14.6,30.16,WSW,250,3.0,5.0,55,0.00,FEW,FEW,0.00,WeatherDisplay:10.37,2013-02-02 07:51:00,
2013-02-02 01:57:00,28.8,14.6,30.16,WNW,289,2.0,3.0,55,0.00,FEW,FEW,0.00,WeatherDisplay:10.37,2013-02-02 07:57:00,
2013-02-02 02:06:00,28.2,14.5,30.16,WNW,282,5.0,7.0,56,0.00,FEW,FEW,0.00,WeatherDisplay:10.37,2013-02-02 08:06:00,
2013-02-02 02:12:00,28.7,15.0,30.16,West,270,5.0,6.0,56,0.00,FEW,FEW,0.00,WeatherDisplay:10.37,2013-02-02 08:12:00,
2013-02-02 02:18:00,28.9,15.2,30.16,West,273,6.0,7.0,56,0.00,FEW,FEW,0.00,WeatherDisplay:10.37,2013-02-02 08:18:00,
2013-02-02 02:24:00,29.3,15.1,30.16,West,270,5.0,7.0,55,0.00,FEW,FEW,0.00,WeatherDisplay:10.37,2013-02-02 08:24:00,
2013-02-02 02:30:00,29.5,15.3,30.16,WNW,297,5.0,7.0,55,0.00,FEW,FEW,0.00,WeatherDisplay:10.37,2013-02-02 08:30:00,
2013-02-02 02:36:00,29.3,15.1,30.16,West,280,5.0,6.0,55,0.00,FEW,FEW,0.00,WeatherDisplay:10.37,2013-02-02 08:36:00,
2013-02-02 02:42:00,29.3,15.1,30.15,West,275,3.0,4.0,55,0.00,FEW,FEW,0.00,WeatherDisplay:10.37,2013-02-02 08:42:00,
2013-02-02 02:48:00,29.3,15.1,30.15,West,275,3.0,5.0,55,0.00,FEW,FEW,0.00,WeatherDisplay:10.37,2013-02-02 08:48:00,
2013-02-02 02:54:00,29.7,15.5,30.16,West,280,7.0,7.0,55,0.00,FEW,FEW,0.00,WeatherDisplay:10.37,2013-02-02 08:54:00,
2013-02-02 03:00:00,29.8,15.6,30.16,NW,307,1.0,2.0,55,0.00,FEW,FEW,0.00,WeatherDisplay:10.37,2013-02-02 09:00:00,
2013-02-02 03:06:00,29.7,15.9,30.16,NNW,338,3.0,4.0,56,0.00,BKN,BKN,0.00,WeatherDisplay:10.37,2013-02-02 09:06:00,
2013-02-02 03:12:00,29.7,15.9,30.16,NW,325,5.0,7.0,56,0.00,BKN,BKN,0.00,WeatherDisplay:10.37,2013-02-02 09:12:00,
2013-02-02 03:18:00,29.5,16.1,30.16,NNW,334,1.0,2.0,57,0.00,BKN,BKN,0.00,WeatherDisplay:10.37,2013-02-02 09:18:00,
2013-02-02 03:24:00,28.9,15.6,30.16,NW,323,6.0,7.0,57,0.00,BKN,BKN,0.00,WeatherDisplay:10.37,2013-02-02 09:24:00,
2013-02-02 03:30:00,29.1,15.7,30.17,WNW,300,3.0,6.0,57,0.00,BKN,BKN,0.00,WeatherDisplay:10.37,2013-02-02 09:30:00,
2013-02-02 03:36:00,28.8,15.9,30.17,WNW,298,3.0,4.0,58,0.00,BKN,BKN,0.00,WeatherDisplay:10.37,2013-02-02 09:36:00,
2013-02-02 03:42:00,28.6,15.7,30.16,WNW,296,3.0,7.0,58,0.00,BKN,BKN,0.00,WeatherDisplay:10.37,2013-02-02 09:42:00,
2013-02-02 03:48:00,28.2,15.7,30.16,NW,308,5.0,5.0,59,0.00,BKN,BKN,0.00,WeatherDisplay:10.37,2013-02-02 09:48:00,
2013-02-02 03:54:00,28.2,15.7,30.16,NNW,331,3.0,4.0,59,0.00,BKN,BKN,0.00,WeatherDisplay:10.37,2013-02-02 09:54:00,
2013-02-02 04:00:00,27.9,16.6,30.16,NNW,338,5.0,7.0,62,0.00,BKN,BKN,0.00,WeatherDisplay:10.37,2013-02-02 10:00:00,
2013-02-02 04:06:00,27.9,16.9,30.16,WNW,301,6.0,8.0,63,0.00,BKN,BKN,0.00,WeatherDisplay:10.37,2013-02-02 10:06:00,
2013-02-02 04:12:00,28.0,17.4,30.16,NW,304,5.0,7.0,64,0.00,BKN,BKN,0.00,WeatherDisplay:10.37,2013-02-02 10:12:00,
2013-02-02 04:18:00,28.2,18.0,30.16,WNW,293,6.0,7.0,65,0.00,BKN,BKN,0.00,WeatherDisplay:10.37,2013-02-02 10:18:00,
2013-02-02 04:24:00,28.6,18.7,30.16,WNW,299,7.0,8.0,66,0.00,BKN,BKN,0.00,WeatherDisplay:10.37,2013-02-02 10:24:00,
2013-02-02 04:30:00,28.6,19.0,30.16,WNW,296,6.0,7.0,67,0.00,BKN,BKN,0.00,WeatherDisplay:10.37,2013-02-02 10:30:00,
2013-02-02 04:36:00,28.6,19.4,30.16,WNW,293,6.0,8.0,68,0.00,BKN,BKN,0.00,WeatherDisplay:10.37,2013-02-02 10:36:00,
2013-02-02 04:42:00,28.6,19.7,30.17,NW,305,6.0,9.0,69,0.00,BKN,BKN,0.00,WeatherDisplay:10.37,2013-02-02 10:42:00,
2013-02-02 04:48:00,28.9,20.3,30.17,WNW,302,8.0,14.0,70,0.00,BKN,BKN,0.00,WeatherDisplay:10.37,2013-02-02 10:48:00,
2013-02-02 04:54:00,29.4,21.2,30.17,WNW,299,10.0,13.0,71,0.00,BKN,BKN,0.00,WeatherDisplay:10.37,2013-02-02 10:54:00,
2013-02-02 05:00:00,29.5,21.6,30.17,WNW,293,7.0,9.0,72,0.00,BKN,BKN,0.00,WeatherDisplay:10.37,2013-02-02 11:00:00,
2013-02-02 05:06:00,29.8,22.2,30.18,NW,305,9.0,12.0,73,0.00,CLR,CLR,0.00,WeatherDisplay:10.37,2013-02-02 11:06:00,
2013-02-02 05:12:00,29.8,22.8,30.18,NW,310,7.0,12.0,75,0.00,CLR,CLR,0.00,WeatherDisplay:10.37,2013-02-02 11:12:00,
2013-02-02 05:18:00,30.0,23.4,30.19,WNW,301,7.0,8.0,76,0.00,CLR,CLR,0.00,WeatherDisplay:10.37,2013-02-02 11:18:00,
2013-02-02 05:24:00,30.2,23.5,30.19,NW,310,6.0,8.0,76,0.00,CLR,CLR,0.00,WeatherDisplay:10.37,2013-02-02 11:24:00,
2013-02-02 05:30:00,30.4,24.1,30.19,NW,312,6.0,10.0,77,0.00,CLR,CLR,0.00,WeatherDisplay:10.37,2013-02-02 11:30:00,
2013-02-02 05:36:00,30.7,24.6,30.19,NW,317,8.0,10.0,78,0.00,CLR,CLR,0.00,WeatherDisplay:10.37,2013-02-02 11:36:00,
2013-02-02 05:42:00,31.1,25.0,30.19,NW,308,6.0,12.0,78,0.00,CLR,CLR,0.00,WeatherDisplay:10.37,2013-02-02 11:42:00,
2013-02-02 05:48:00,31.3,25.2,30.19,WNW,303,7.0,9.0,78,0.00,CLR,CLR,0.00,WeatherDisplay:10.37,2013-02-02 11:48:00,
2013-02-02 05:54:00,31.2,25.1,30.19,NW,314,6.0,12.0,78,0.00,CLR,CLR,0.00,WeatherDisplay:10.37,2013-02-02 11:54:00,
2013-02-02 06:00:00,30.9,24.8,30.19,NW,309,6.0,7.0,78,0.00,CLR,CLR,0.00,WeatherDisplay:10.37,2013-02-02 12:00:00,
2013-02-02 06:06:00,30.7,25.0,30.18,NW,309,7.0,12.0,79,0.00,FEW,FEW,0.00,WeatherDisplay:10.37,2013-02-02 12:06:00,
2013-02-02 06:12:00,30.9,25.2,30.18,WNW,303,6.0,10.0,79,0.00,FEW,FEW,0.00,WeatherDisplay:10.37,2013-02-02 12:12:00,
2013-02-02 06:18:00,30.7,25.3,30.18,NW,321,6.0,7.0,80,0.00,FEW,FEW,0.00,WeatherDisplay:10.37,2013-02-02 12:18:00,
2013-02-02 06:24:00,30.4,25.0,30.18,NW,311,6.0,8.0,80,0.00,FEW,FEW,0.00,WeatherDisplay:10.37,2013-02-02 12:24:00,
2013-02-02 06:30:00,30.4,25.3,30.19,NW,309,6.0,9.0,81,0.00,FEW,FEW,0.00,WeatherDisplay:10.37,2013-02-02 12:30:00,
2013-02-02 06:36:00,30.4,25.3,30.19,NW,310,3.0,7.0,81,0.00,FEW,FEW,0.00,WeatherDisplay:10.37,2013-02-02 12:36:00,
2013-02-02 06:42:00,30.2,25.4,30.19,WNW,302,5.0,7.0,82,0.00,FEW,FEW,0.00,WeatherDisplay:10.37,2013-02-02 12:42:00,
2013-02-02 06:48:00,30.4,25.6,30.19,WNW,301,6.0,9.0,82,0.00,FEW,FEW,0.00,WeatherDisplay:10.37,2013-02-02 12:48:00,
2013-02-02 06:54:00,30.6,26.3,30.20,WNW,289,5.0,6.0,84,0.00,FEW,FEW,0.00,WeatherDisplay:10.37,2013-02-02 12:54:00,
2013-02-02 07:00:00,30.4,26.1,30.20,NW,310,5.0,7.0,84,0.00,FEW,FEW,0.00,WeatherDisplay:10.37,2013-02-02 13:00:00,
2013-02-02 07:06:00,30.2,25.9,30.20,NW,311,6.0,8.0,84,0.00,CLR,CLR,0.00,WeatherDisplay:10.37,2013-02-02 13:06:00,
2013-02-02 07:12:00,30.2,26.2,30.20,NW,304,5.0,8.0,85,0.00,CLR,CLR,0.00,WeatherDisplay:10.37,2013-02-02 13:12:00,
2013-02-02 07:18:00,30.2,26.2,30.20,NW,308,5.0,9.0,85,0.00,CLR,CLR,0.00,WeatherDisplay:10.37,2013-02-02 13:18:00,
2013-02-02 07:24:00,30.0,26.0,30.20,NW,311,7.0,9.0,85,0.00,CLR,CLR,0.00,WeatherDisplay:10.37,2013-02-02 13:24:00,
2013-02-02 07:30:00,30.2,26.2,30.21,NW,305,7.0,12.0,85,0.00,CLR,CLR,0.00,WeatherDisplay:10.37,2013-02-02 13:30:00,
2013-02-02 07:36:00,30.2,26.5,30.21,NW,318,5.0,8.0,86,0.00,CLR,CLR,0.00,WeatherDisplay:10.37,2013-02-02 13:36:00,
2013-02-02 07:42:00,30.4,26.7,30.22,NW,323,5.0,8.0,86,0.00,CLR,CLR,0.00,WeatherDisplay:10.37,2013-02-02 13:42:00,
2013-02-02 07:48:00,30.7,27.0,30.22,NW,326,5.0,7.0,86,0.00,CLR,CLR,0.00,WeatherDisplay:10.37,2013-02-02 13:48:00,
2013-02-02 07:54:00,30.9,27.2,30.22,NW,318,6.0,7.0,86,0.00,CLR,CLR,0.00,WeatherDisplay:10.37,2013-02-02 13:54:00,
2013-02-02 08:00:00,30.9,27.2,30.22,NW,323,6.0,7.0,86,0.00,CLR,CLR,0.00,WeatherDisplay:10.37,2013-02-02 14:00:00,
2013-02-02 08:06:00,30.9,27.2,30.23,NNW,334,6.0,8.0,86,0.00,FEW,FEW,0.00,WeatherDisplay:10.37,2013-02-02 14:06:00,
2013-02-02 08:12:00,31.1,27.4,30.23,NNW,330,3.0,7.0,86,0.00,FEW,FEW,0.00,WeatherDisplay:10.37,2013-02-02 14:12:00,
2013-02-02 08:18:00,31.6,27.9,30.24,NW,311,6.0,10.0,86,0.00,FEW,FEW,0.00,WeatherDisplay:10.37,2013-02-02 14:18:00,
2013-02-02 08:24:00,31.8,28.1,30.24,NW,312,3.0,7.0,86,0.00,FEW,FEW,0.00,WeatherDisplay:10.37,2013-02-02 14:24:00,
2013-02-02 08:30:00,32.2,28.5,30.24,WNW,303,6.0,9.0,86,0.00,FEW,FEW,0.00,WeatherDisplay:10.37,2013-02-02 14:30:00,
2013-02-02 08:36:00,32.5,28.5,30.24,WNW,296,9.0,13.0,85,0.00,FEW,FEW,0.00,WeatherDisplay:10.37,2013-02-02 14:36:00,
2013-02-02 08:42:00,32.8,28.8,30.25,WNW,301,7.0,10.0,85,0.00,FEW,FEW,0.00,WeatherDisplay:10.37,2013-02-02 14:42:00,
2013-02-02 08:48:00,33.4,29.3,30.25,WNW,303,9.0,12.0,85,0.00,FEW,FEW,0.00,WeatherDisplay:10.37,2013-02-02 14:48:00,
2013-02-02 08:54:00,33.8,29.5,30.26,NW,306,8.0,13.0,84,0.00,FEW,FEW,0.00,WeatherDisplay:10.37,2013-02-02 14:54:00,
2013-02-02 09:00:00,34.4,30.1,30.26,NW,309,7.0,10.0,84,0.00,FEW,FEW,0.00,WeatherDisplay:10.37,2013-02-02 15:00:00,
2013-02-02 09:06:00,35.2,30.3,30.27,WNW,296,9.0,12.0,82,0.00,FEW,FEW,0.00,WeatherDisplay:10.37,2013-02-02 15:06:00,
2013-02-02 09:12:00,35.7,30.5,30.27,NW,304,10.0,14.0,81,0.00,FEW,FEW,0.00,WeatherDisplay:10.37,2013-02-02 15:12:00,
2013-02-02 09:18:00,36.5,30.9,30.27,WNW,303,12.0,16.0,80,0.00,FEW,FEW,0.00,WeatherDisplay:10.37,2013-02-02 15:18:00,
2013-02-02 09:24:00,37.2,31.6,30.27,NW,304,7.0,10.0,80,0.00,FEW,FEW,0.00,WeatherDisplay:10.37,2013-02-02 15:24:00,
2013-02-02 09:30:00,37.6,31.7,30.26,NW,312,7.0,9.0,79,0.00,FEW,FEW,0.00,WeatherDisplay:10.37,2013-02-02 15:30:00,
2013-02-02 09:36:00,38.7,32.4,30.26,NW,317,6.0,9.0,78,0.00,FEW,FEW,0.00,WeatherDisplay:10.37,2013-02-02 15:36:00,
2013-02-02 09:42:00,39.4,32.8,30.26,NW,308,8.0,9.0,77,0.00,FEW,FEW,0.00,WeatherDisplay:10.37,2013-02-02 15:42:00,
2013-02-02 09:48:00,40.0,32.7,30.26,NW,308,7.0,12.0,75,0.00,FEW,FEW,0.00,WeatherDisplay:10.37,2013-02-02 15:48:00,
2013-02-02 09:54:00,41.4,33.0,30.26,NW,319,7.0,12.0,72,0.00,FEW,FEW,0.00,WeatherDisplay:10.37,2013-02-02 15:54:00,
2013-02-02 10:00:00,42.4,32.9,30.26,NW,304,9.0,13.0,69,0.00,FEW,FEW,0.00,WeatherDisplay:10.37,2013-02-02 16:00:00,
2013-02-02 10:06:00,43.3,33.4,30.26,WNW,298,9.0,12.0,68,0.00,CLR,CLR,0.00,WeatherDisplay:10.37,2013-02-02 16:06:00,
2013-02-02 10:12:00,44.6,33.2,30.26,WNW,299,8.0,12.0,64,0.00,CLR,CLR,0.00,WeatherDisplay:10.37,2013-02-02 16:12:00,
2013-02-02 10:18:00,44.8,33.4,30.26,NW,307,12.0,14.0,64,0.00,CLR,CLR,0.00,WeatherDisplay:10.37,2013-02-02 16:18:00,
2013-02-02 10:24:00,45.5,33.7,30.26,NW,306,10.0,12.0,63,0.00,CLR,CLR,0.00,WeatherDisplay:10.37,2013-02-02 16:24:00,
2013-02-02 10:30:00,45.9,32.8,30.26,WNW,295,10.0,15.0,60,0.00,CLR,CLR,0.00,WeatherDisplay:10.37,2013-02-02 16:30:00,
2013-02-02 10:36:00,46.0,33.7,30.26,WNW,288,13.0,16.0,62,0.00,CLR,CLR,0.00,WeatherDisplay:10.37,2013-02-02 16:36:00,
2013-02-02 10:42:00,46.6,33.0,30.27,WNW,295,12.0,16.0,59,0.00,CLR,CLR,0.00,WeatherDisplay:10.37,2013-02-02 16:42:00,
2013-02-02 10:48:00,46.8,32.8,30.27,WNW,297,12.0,16.0,58,0.00,CLR,CLR,0.00,WeatherDisplay:10.37,2013-02-02 16:48:00,
2013-02-02 10:54:00,47.7,33.2,30.27,NW,305,13.0,16.0,57,0.00,CLR,CLR,0.00,WeatherDisplay:10.37,2013-02-02 16:54:00,
2013-02-02 11:00:00,47.8,33.3,30.27,WNW,296,13.0,16.0,57,0.00,CLR,CLR,0.00,WeatherDisplay:10.37,2013-02-02 17:00:00,
2013-02-02 11:06:00,48.0,33.5,30.28,WNW,291,10.0,15.0,57,0.00,CLR,CLR,0.00,WeatherDisplay:10.37,2013-02-02 17:06:00,
2013-02-02 11:12:00,48.6,34.1,30.28,WNW,283,10.0,12.0,57,0.00,CLR,CLR,0.00,WeatherDisplay:10.37,2013-02-02 17:12:00,
2013-02-02 11:18:00,49.1,34.1,30.28,WNW,294,12.0,16.0,56,0.00,CLR,CLR,0.00,WeatherDisplay:10.37,2013-02-02 17:18:00,
2013-02-02 11:24:00,49.5,34.0,30.28,WNW,298,13.0,16.0,55,0.00,CLR,CLR,0.00,WeatherDisplay:10.37,2013-02-02 17:24:00,
2013-02-02 11:30:00,49.8,34.3,30.27,NW,322,12.0,14.0,55,0.00,CLR,CLR,0.00,WeatherDisplay:10.37,2013-02-02 17:30:00,
2013-02-02 11:36:00,49.8,33.8,30.27,WNW,303,15.0,16.0,54,0.00,CLR,CLR,0.00,WeatherDisplay:10.37,2013-02-02 17:36:00,
2013-02-02 11:42:00,50.4,34.3,30.28,WNW,285,17.0,23.0,54,0.00,CLR,CLR,0.00,WeatherDisplay:10.37,2013-02-02 17:42:00,
2013-02-02 11:48:00,50.4,34.4,30.28,WNW,285,16.0,18.0,54,0.00,CLR,CLR,0.00,WeatherDisplay:10.37,2013-02-02 17:48:00,
2013-02-02 11:54:00,50.9,34.8,30.27,NW,304,10.0,10.0,54,0.00,CLR,CLR,0.00,WeatherDisplay:10.37,2013-02-02 17:54:00,
2013-02-02 12:00:00,51.4,34.8,30.27,WNW,301,14.0,21.0,53,0.00,CLR,CLR,0.00,WeatherDisplay:10.37,2013-02-02 18:00:00,
2013-02-02 12:06:00,51.6,35.0,30.26,NW,305,13.0,16.0,53,0.00,CLR,CLR,0.00,WeatherDisplay:10.37,2013-02-02 18:06:00,
2013-02-02 12:12:00,51.8,34.7,30.26,WNW,295,18.0,21.0,52,0.00,CLR,CLR,0.00,WeatherDisplay:10.37,2013-02-02 18:12:00,
2013-02-02 12:18:00,52.3,35.7,30.26,WNW,298,16.0,20.0,53,0.00,CLR,CLR,0.00,WeatherDisplay:10.37,2013-02-02 18:18:00,
2013-02-02 12:24:00,52.6,35.5,30.26,WNW,302,15.0,24.0,52,0.00,CLR,CLR,0.00,WeatherDisplay:10.37,2013-02-02 18:24:00,
2013-02-02 12:30:00,53.6,35.9,30.25,WNW,294,13.0,18.0,51,0.00,CLR,CLR,0.00,WeatherDisplay:10.37,2013-02-02 18:30:00,
2013-02-02 12:36:00,53.7,35.5,30.25,WNW,297,14.0,20.0,50,0.00,CLR,CLR,0.00,WeatherDisplay:10.37,2013-02-02 18:36:00,
2013-02-02 12:42:00,53.4,35.2,30.25,WNW,297,17.0,26.0,50,0.00,CLR,CLR,0.00,WeatherDisplay:10.37,2013-02-02 18:42:00,
2013-02-02 12:48:00,54.0,35.8,30.25,West,273,12.0,12.0,50,0.00,CLR,CLR,0.00,WeatherDisplay:10.37,2013-02-02 18:48:00,
2013-02-02 12:54:00,54.0,35.3,30.25,West,281,14.0,20.0,49,0.00,CLR,CLR,0.00,WeatherDisplay:10.37,2013-02-02 18:54:00,
2013-02-02 13:00:00,54.4,35.1,30.25,WNW,300,20.0,23.0,48,0.00,CLR,CLR,0.00,WeatherDisplay:10.37,2013-02-02 19:00:00,
2013-02-02 13:06:00,54.3,35.0,30.24,NW,315,17.0,26.0,48,0.00,CLR,CLR,0.00,WeatherDisplay:10.37,2013-02-02 19:06:00,
2013-02-02 13:12:00,54.4,35.1,30.24,WNW,297,16.0,23.0,48,0.00,CLR,CLR,0.00,WeatherDisplay:10.37,2013-02-02 19:12:00,
2013-02-02 13:18:00,54.2,34.4,30.23,WNW,291,10.0,18.0,47,0.00,CLR,CLR,0.00,WeatherDisplay:10.37,2013-02-02 19:18:00,
2013-02-02 13:24:00,54.2,33.3,30.23,WNW,290,16.0,21.0,45,0.00,CLR,CLR,0.00,WeatherDisplay:10.37,2013-02-02 19:24:00,
2013-02-02 13:30:00,54.5,33.6,30.23,WNW,302,20.0,28.0,45,0.00,CLR,CLR,0.00,WeatherDisplay:10.37,2013-02-02 19:30:00,
2013-02-02 13:36:00,55.1,33.6,30.23,WNW,301,13.0,23.0,44,0.00,CLR,CLR,0.00,WeatherDisplay:10.37,2013-02-02 19:36:00,
2013-02-02 13:42:00,54.8,33.3,30.23,WNW,298,13.0,20.0,44,0.00,CLR,CLR,0.00,WeatherDisplay:10.37,2013-02-02 19:42:00,
2013-02-02 13:48:00,55.4,32.7,30.23,WNW,303,18.0,21.0,42,0.00,CLR,CLR,0.00,WeatherDisplay:10.37,2013-02-02 19:48:00,
2013-02-02 13:54:00,55.4,32.7,30.22,NW,316,14.0,21.0,42,0.00,CLR,CLR,0.00,WeatherDisplay:10.37,2013-02-02 19:54:00,
2013-02-02 14:00:00,55.2,33.1,30.22,NW,319,9.0,13.0,43,0.00,CLR,CLR,0.00,WeatherDisplay:10.37,2013-02-02 20:00:00,
2013-02-02 14:06:00,56.1,32.7,30.21,WNW,297,12.0,19.0,41,0.00,FEW,FEW,0.00,WeatherDisplay:10.37,2013-02-02 20:06:00,
2013-02-02 14:12:00,55.6,32.2,30.21,WNW,299,16.0,19.0,41,0.00,FEW,FEW,0.00,WeatherDisplay:10.37,2013-02-02 20:12:00,
2013-02-02 14:18:00,55.8,31.8,30.22,WNW,301,10.0,13.0,40,0.00,FEW,FEW,0.00,WeatherDisplay:10.37,2013-02-02 20:18:00,
2013-02-02 14:24:00,56.5,32.4,30.22,NW,309,15.0,18.0,40,0.00,FEW,FEW,0.00,WeatherDisplay:10.37,2013-02-02 20:24:00,
2013-02-02 14:30:00,56.4,31.7,30.21,WNW,297,14.0,19.0,39,0.00,FEW,FEW,0.00,WeatherDisplay:10.37,2013-02-02 20:30:00,
2013-02-02 14:36:00,56.6,31.9,30.21,WNW,296,7.0,12.0,39,0.00,FEW,FEW,0.00,WeatherDisplay:10.37,2013-02-02 20:36:00,
2013-02-02 14:42:00,56.1,31.4,30.21,WNW,291,13.0,17.0,39,0.00,FEW,FEW,0.00,WeatherDisplay:10.37,2013-02-02 20:42:00,
2013-02-02 14:48:00,56.7,30.7,30.21,NW,304,13.0,16.0,37,0.00,FEW,FEW,0.00,WeatherDisplay:10.37,2013-02-02 20:48:00,
2013-02-02 14:54:00,56.8,30.8,30.21,WNW,294,6.0,13.0,37,0.00,FEW,FEW,0.00,WeatherDisplay:10.37,2013-02-02 20:54:00,
2013-02-02 15:00:00,57.5,31.4,30.21,NW,307,7.0,14.0,37,0.00,FEW,FEW,0.00,WeatherDisplay:10.37,2013-02-02 21:00:00,
2013-02-02 15:06:00,56.7,30.7,30.21,WNW,290,8.0,14.0,37,0.00,FEW,FEW,0.00,WeatherDisplay:10.37,2013-02-02 21:06:00,
2013-02-02 15:12:00,56.8,31.4,30.21,NW,313,10.0,16.0,38,0.00,FEW,FEW,0.00,WeatherDisplay:10.37,2013-02-02 21:12:00,
2013-02-02 15:18:00,56.8,30.8,30.21,NNW,331,10.0,12.0,37,0.00,FEW,FEW,0.00,WeatherDisplay:10.37,2013-02-02 21:18:00,
2013-02-02 15:24:00,56.7,30.7,30.21,NW,308,7.0,14.0,37,0.00,FEW,FEW,0.00,WeatherDisplay:10.37,2013-02-02 21:24:00,
2013-02-02 15:30:00,56.6,31.2,30.22,WNW,302,7.0,12.0,38,0.00,FEW,FEW,0.00,WeatherDisplay:10.37,2013-02-02 21:30:00,
2013-02-02 15:36:00,56.7,30.7,30.22,WNW,299,12.0,15.0,37,0.00,FEW,FEW,0.00,WeatherDisplay:10.37,2013-02-02 21:36:00,
2013-02-02 15:42:00,56.8,30.8,30.22,WNW,297,9.0,12.0,37,0.00,FEW,FEW,0.00,WeatherDisplay:10.37,2013-02-02 21:42:00,
2013-02-02 15:48:00,56.6,30.6,30.22,NW,304,13.0,17.0,37,0.00,FEW,FEW,0.00,WeatherDisplay:10.37,2013-02-02 21:48:00,
2013-02-02 15:54:00,56.7,30.7,30.22,NW,312,9.0,13.0,37,0.00,FEW,FEW,0.00,WeatherDisplay:10.37,2013-02-02 21:54:00,
2013-02-02 16:00:00,56.6,31.2,30.22,WNW,301,14.0,17.0,38,0.00,FEW,FEW,0.00,WeatherDisplay:10.37,2013-02-02 22:00:00,
2013-02-02 16:06:00,56.4,30.4,30.22,WNW,303,10.0,17.0,37,0.00,FEW,FEW,0.00,WeatherDisplay:10.37,2013-02-02 22:06:00,
2013-02-02 16:12:00,55.9,30.0,30.22,NW,304,12.0,18.0,37,0.00,FEW,FEW,0.00,WeatherDisplay:10.37,2013-02-02 22:12:00,
2013-02-02 16:18:00,55.8,29.9,30.22,WNW,295,9.0,15.0,37,0.00,FEW,FEW,0.00,WeatherDisplay:10.37,2013-02-02 22:18:00,
2013-02-02 16:24:00,55.5,29.6,30.22,WNW,285,10.0,14.0,37,0.00,FEW,FEW,0.00,WeatherDisplay:10.37,2013-02-02 22:24:00,
2013-02-02 16:30:00,55.4,29.5,30.22,WNW,301,13.0,16.0,37,0.00,FEW,FEW,0.00,WeatherDisplay:10.37,2013-02-02 22:30:00,
2013-02-02 16:36:00,55.4,29.5,30.22,WNW,298,9.0,14.0,37,0.00,FEW,FEW,0.00,WeatherDisplay:10.37,2013-02-02 22:36:00,
2013-02-02 16:42:00,55.8,30.5,30.22,NW,313,13.0,17.0,38,0.00,FEW,FEW,0.00,WeatherDisplay:10.37,2013-02-02 22:42:00,
2013-02-02 16:48:00,55.6,29.7,30.22,NW,314,10.0,14.0,37,0.00,FEW,FEW,0.00,WeatherDisplay:10.37,2013-02-02 22:48:00,
2013-02-02 16:54:00,55.6,29.7,30.22,NW,304,13.0,15.0,37,0.00,FEW,FEW,0.00,WeatherDisplay:10.37,2013-02-02 22:54:00,
2013-02-02 17:00:00,55.2,29.4,30.22,WNW,301,9.0,14.0,37,0.00,FEW,FEW,0.00,WeatherDisplay:10.37,2013-02-02 23:00:00,
2013-02-02 17:06:00,55.3,29.5,30.21,WNW,292,8.0,12.0,37,0.00,FEW,FEW,0.00,WeatherDisplay:10.37,2013-02-02 23:06:00,
2013-02-02 17:12:00,54.9,29.7,30.21,WNW,295,12.0,16.0,38,0.00,FEW,FEW,0.00,WeatherDisplay:10.37,2013-02-02 23:12:00,
2013-02-02 17:18:00,54.7,29.6,30.21,NW,304,7.0,14.0,38,0.00,FEW,FEW,0.00,WeatherDisplay:10.37,2013-02-02 23:18:00,
2013-02-02 17:24:00,54.0,29.6,30.21,WNW,294,8.0,12.0,39,0.00,FEW,FEW,0.00,WeatherDisplay:10.37,2013-02-02 23:24:00,
2013-02-02 17:30:00,53.8,29.4,30.22,NW,310,7.0,9.0,39,0.00,FEW,FEW,0.00,WeatherDisplay:10.37,2013-02-02 23:30:00,
2013-02-02 17:36:00,53.2,29.5,30.22,WNW,295,6.0,8.0,40,0.00,FEW,FEW,0.00,WeatherDisplay:10.37,2013-02-02 23:36:00,
2013-02-02 17:42:00,53.1,29.4,30.22,WNW,291,9.0,10.0,40,0.00,FEW,FEW,0.00,WeatherDisplay:10.37,2013-02-02 23:42:00,
2013-02-02 17:48:00,52.4,29.4,30.22,WNW,290,8.0,10.0,41,0.00,FEW,FEW,0.00,WeatherDisplay:10.37,2013-02-02 23:48:00,
2013-02-02 17:54:00,51.8,29.4,30.22,WNW,292,6.0,8.0,42,0.00,FEW,FEW,0.00,WeatherDisplay:10.37,2013-02-02 23:54:00,
2013-02-02 18:00:00,51.3,29.5,30.22,West,278,5.0,7.0,43,0.00,FEW,FEW,0.00,WeatherDisplay:10.37,2013-02-03 00:00:00,
2013-02-02 18:06:00,50.5,29.4,30.22,West,276,6.0,7.0,44,0.00,FEW,FEW,0.00,WeatherDisplay:10.37,2013-02-03 00:06:00,
2013-02-02 18:12:00,50.0,28.9,30.22,WNW,283,5.0,7.0,44,0.00,FEW,FEW,0.00,WeatherDisplay:10.37,2013-02-03 00:12:00,
2013-02-02 18:18:00,49.5,29.0,30.22,WNW,283,6.0,7.0,45,0.00,FEW,FEW,0.00,WeatherDisplay:10.37,2013-02-03 00:18:00,
2013-02-02 18:24:00,49.1,29.2,30.22,West,281,6.0,7.0,46,0.00,FEW,FEW,0.00,WeatherDisplay:10.37,2013-02-03 00:24:00,
2013-02-02 18:30:00,48.6,29.3,30.23,West,274,7.0,9.0,47,0.00,FEW,FEW,0.00,WeatherDisplay:10.37,2013-02-03 00:30:00,
2013-02-02 18:36:00,48.0,29.2,30.23,West,272,6.0,9.0,48,0.00,FEW,FEW,0.00,WeatherDisplay:10.37,2013-02-03 00:36:00,
2013-02-02 18:42:00,47.7,29.4,30.23,West,275,6.0,7.0,49,0.00,FEW,FEW,0.00,WeatherDisplay:10.37,2013-02-03 00:42:00,
2013-02-02 18:48:00,47.1,28.9,30.23,West,273,3.0,5.0,49,0.00,FEW,FEW,0.00,WeatherDisplay:10.37,2013-02-03 00:48:00,
2013-02-02 18:54:00,46.8,29.1,30.23,West,274,5.0,6.0,50,0.00,FEW,FEW,0.00,WeatherDisplay:10.37,2013-02-03 00:54:00,
2013-02-02 19:00:00,46.5,28.8,30.23,West,274,5.0,7.0,50,0.00,FEW,FEW,0.00,WeatherDisplay:10.37,2013-02-03 01:00:00,
2013-02-02 19:06:00,46.2,29.1,30.23,West,275,6.0,7.0,51,0.00,CLR,CLR,0.00,WeatherDisplay:10.37,2013-02-03 01:06:00,
2013-02-02 19:12:00,46.0,28.9,30.23,West,274,6.0,8.0,51,0.00,CLR,CLR,0.00,WeatherDisplay:10.37,2013-02-03 01:12:00,
2013-02-02 19:18:00,46.0,28.9,30.23,West,279,6.0,9.0,51,0.00,CLR,CLR,0.00,WeatherDisplay:10.37,2013-02-03 01:18:00,
2013-02-02 19:24:00,46.0,28.9,30.23,WNW,282,5.0,8.0,51,0.00,CLR,CLR,0.00,WeatherDisplay:10.37,2013-02-03 01:24:00,
2013-02-02 19:30:00,46.0,28.9,30.23,West,278,6.0,8.0,51,0.00,CLR,CLR,0.00,WeatherDisplay:10.37,2013-02-03 01:30:00,
2013-02-02 19:36:00,46.2,29.1,30.23,West,278,6.0,7.0,51,0.00,CLR,CLR,0.00,WeatherDisplay:10.37,2013-02-03 01:36:00,
2013-02-02 19:42:00,46.2,29.1,30.23,West,275,6.0,7.0,51,0.00,CLR,CLR,0.00,WeatherDisplay:10.37,2013-02-03 01:42:00,
2013-02-02 19:48:00,46.4,29.2,30.23,West,279,6.0,7.0,51,0.00,CLR,CLR,0.00,WeatherDisplay:10.37,2013-02-03 01:48:00,
2013-02-02 19:54:00,46.6,29.4,30.23,WNW,283,7.0,7.0,51,0.00,CLR,CLR,0.00,WeatherDisplay:10.37,2013-02-03 01:54:00,
2013-02-02 20:00:00,46.8,29.6,30.23,WNW,285,7.0,9.0,51,0.00,CLR,CLR,0.00,WeatherDisplay:10.37,2013-02-03 02:00:00,
2013-02-02 20:06:00,46.9,29.2,30.23,West,276,8.0,9.0,50,0.00,CLR,CLR,0.00,WeatherDisplay:10.37,2013-02-03 02:06:00,
2013-02-02 20:12:00,47.1,29.4,30.23,West,275,7.0,10.0,50,0.00,CLR,CLR,0.00,WeatherDisplay:10.37,2013-02-03 02:12:00,
2013-02-02 20:18:00,46.9,29.2,30.23,West,281,8.0,12.0,50,0.00,CLR,CLR,0.00,WeatherDisplay:10.37,2013-02-03 02:18:00,
2013-02-02 20:24:00,46.8,29.1,30.23,West,274,7.0,8.0,50,0.00,CLR,CLR,0.00,WeatherDisplay:10.37,2013-02-03 02:24:00,
2013-02-02 20:30:00,46.8,29.1,30.23,West,271,8.0,9.0,50,0.00,CLR,CLR,0.00,WeatherDisplay:10.37,2013-02-03 02:30:00,
2013-02-02 20:36:00,46.8,29.1,30.23,West,270,6.0,8.0,50,0.00,CLR,CLR,0.00,WeatherDisplay:10.37,2013-02-03 02:36:00,
2013-02-02 20:42:00,46.8,29.1,30.23,West,276,7.0,9.0,50,0.00,CLR,CLR,0.00,WeatherDisplay:10.37,2013-02-03 02:42:00,
2013-02-02 20:48:00,46.8,29.1,30.23,WNW,283,7.0,9.0,50,0.00,CLR,CLR,0.00,WeatherDisplay:10.37,2013-02-03 02:48:00,
2013-02-02 20:54:00,46.8,28.6,30.23,WNW,285,7.0,9.0,49,0.00,CLR,CLR,0.00,WeatherDisplay:10.37,2013-02-03 02:54:00,
2013-02-02 21:00:00,46.6,28.4,30.23,WNW,284,8.0,10.0,49,0.00,CLR,CLR,0.00,WeatherDisplay:10.37,2013-02-03 03:00:00,
2013-02-02 21:06:00,46.6,28.4,30.23,West,278,8.0,10.0,49,0.00,CLR,CLR,0.00,WeatherDisplay:10.37,2013-02-03 03:06:00,
2013-02-02 21:12:00,46.4,28.3,30.23,West,278,8.0,10.0,49,0.00,CLR,CLR,0.00,WeatherDisplay:10.37,2013-02-03 03:12:00,
2013-02-02 21:18:00,46.2,28.1,30.23,West,274,8.0,13.0,49,0.00,CLR,CLR,0.00,WeatherDisplay:10.37,2013-02-03 03:18:00,
2013-02-02 21:24:00,46.0,27.4,30.23,West,278,8.0,10.0,48,0.00,CLR,CLR,0.00,WeatherDisplay:10.37,2013-02-03 03:24:00,
2013-02-02 21:30:00,45.7,27.1,30.23,West,280,7.0,9.0,48,0.00,CLR,CLR,0.00,WeatherDisplay:10.37,2013-02-03 03:30:00,
2013-02-02 21:36:00,45.5,27.4,30.23,WNW,301,9.0,14.0,49,0.00,CLR,CLR,0.00,WeatherDisplay:10.37,2013-02-03 03:36:00,
2013-02-02 21:42:00,45.1,27.1,30.24,WNW,300,8.0,10.0,49,0.00,CLR,CLR,0.00,WeatherDisplay:10.37,2013-02-03 03:42:00,
2013-02-02 21:48:00,44.6,26.6,30.24,West,280,9.0,9.0,49,0.00,CLR,CLR,0.00,WeatherDisplay:10.37,2013-02-03 03:48:00,
2013-02-02 21:54:00,44.5,26.5,30.24,West,268,9.0,9.0,49,0.00,CLR,CLR,0.00,WeatherDisplay:10.37,2013-02-03 03:54:00,
2013-02-02 22:00:00,44.1,26.6,30.24,West,281,8.0,8.0,50,0.00,CLR,CLR,0.00,WeatherDisplay:10.37,2013-02-03 04:00:00,
2013-02-02 22:06:00,44.1,26.6,30.24,WNW,292,8.0,8.0,50,0.00,CLR,CLR,0.00,WeatherDisplay:10.37,2013-02-03 04:06:00,
2013-02-02 22:12:00,44.1,26.6,30.24,WNW,292,8.0,8.0,50,0.00,CLR,CLR,0.00,WeatherDisplay:10.37,2013-02-03 04:12:00,
2013-02-02 22:24:00,43.7,26.3,30.24,WNW,288,9.0,11.0,50,0.00,CLR,CLR,0.00,WeatherDisplay:10.37,2013-02-03 04:24:00,
2013-02-02 22:30:00,43.7,26.3,30.24,West,274,9.0,9.0,50,0.00,CLR,CLR,0.00,WeatherDisplay:10.37,2013-02-03 04:30:00,
2013-02-02 22:36:00,43.7,26.3,30.24,West,270,9.0,9.0,50,0.00,CLR,CLR,0.00,WeatherDisplay:10.37,2013-02-03 04:36:00,
2013-02-02 22:42:00,43.3,25.9,30.24,West,278,9.0,12.0,50,0.00,CLR,CLR,0.00,WeatherDisplay:10.37,2013-02-03 04:42:00,
2013-02-02 22:48:00,43.3,25.9,30.24,WNW,290,8.0,12.0,50,0.00,CLR,CLR,0.00,WeatherDisplay:10.37,2013-02-03 04:48:00,
2013-02-02 22:54:00,43.3,25.9,30.24,NW,305,7.0,7.0,50,0.00,CLR,CLR,0.00,WeatherDisplay:10.37,2013-02-03 04:54:00,
2013-02-02 23:06:00,43.2,25.8,30.24,WNW,299,7.0,10.0,50,0.00,CLR,CLR,0.00,WeatherDisplay:10.37,2013-02-03 05:06:00,
2013-02-02 23:12:00,43.2,25.8,30.24,WNW,300,8.0,12.0,50,0.00,CLR,CLR,0.00,WeatherDisplay:10.37,2013-02-03 05:12:00,
2013-02-02 23:18:00,43.2,25.8,30.24,NW,314,8.0,12.0,50,0.00,CLR,CLR,0.00,WeatherDisplay:10.37,2013-02-03 05:18:00,
2013-02-02 23:21:00,43.4,26.0,30.24,NW,319,10.0,12.0,50,0.00,CLR,CLR,0.00,WeatherDisplay:10.37,2013-02-03 05:21:00,
2013-02-02 23:27:00,43.7,26.3,30.25,NW,313,8.0,10.0,50,0.00,CLR,CLR,0.00,WeatherDisplay:10.37,2013-02-03 05:27:00,
2013-02-02 23:33:00,43.5,26.1,30.25,WNW,302,7.0,9.0,50,0.00,CLR,CLR,0.00,WeatherDisplay:10.37,2013-02-03 05:33:00,
2013-02-02 23:39:00,43.3,25.9,30.25,NW,305,8.0,9.0,50,0.00,CLR,CLR,0.00,WeatherDisplay:10.37,2013-02-03 05:39:00,
2013-02-02 23:45:00,43.2,25.8,30.25,NW,315,7.0,9.0,50,0.00,CLR,CLR,0.00,WeatherDisplay:10.37,2013-02-03 05:45:00,
2013-02-02 23:51:00,43.2,25.8,30.25,NW,308,9.0,13.0,50,0.00,CLR,CLR,0.00,WeatherDisplay:10.37,2013-02-03 05:51:00,
2013-02-02 23:57:00,43.3,25.4,30.25,WNW,302,8.0,10.0,49,0.00,CLR,CLR,0.00,WeatherDisplay:10.37,2013-02-03 05:57:00,